Wetterdaten: Woche 24.01.22 - 30.01.22 (KW4)
Datum Zeit Temp. Aussen Temp. o. S. Temp +5cm Feuchte Auss Luftdruck Regen Sonnenschein Regendauer Solar Windben Empfang
24.01.2022 00:00 4,5 C 2,7 C 0,9 C 86 % 1035,5 hPa 0,0 l/m 0,00 h 0,00 h 0 W/m 1,2 km/h (1 Bft) 97,20 %
24.01.2022 01:00 3,0 C 1,5 C -0,4 C 88 % 1035,2 hPa 0,0 l/m 0,00 h 0,00 h 0 W/m 2,1 km/h (1 Bft) 95,23 %
24.01.2022 02:00 2,2 C 0,7 C -0,9 C 90 % 1035,0 hPa 0,0 l/m 0,00 h 0,00 h 0 W/m 0,4 km/h (0 Bft) 97,08 %
24.01.2022 03:00 1,2 C -0,2 C -1,8 C 91 % 1034,8 hPa 0,0 l/m 0,00 h 0,00 h 0 W/m 0,0 km/h (0 Bft) 97,08 %
24.01.2022 04:00 0,4 C -0,8 C -2,2 C 92 % 1034,5 hPa 0,0 l/m 0,00 h 0,00 h 0 W/m 0,0 km/h (0 Bft) 97,59 %
24.01.2022 05:00 0,8 C 1,2 C -0,5 C 94 % 1034,6 hPa 0,0 l/m 0,00 h 0,00 h 0 W/m 2,9 km/h (1 Bft) 96,60 %
24.01.2022 06:00 2,7 C 2,8 C 1,0 C 95 % 1034,6 hPa 0,0 l/m 0,00 h 0,00 h 0 W/m 7,9 km/h (2 Bft) 99,63 %
24.01.2022 07:00 3,2 C 2,6 C 0,9 C 93 % 1034,7 hPa 0,0 l/m 0,00 h 0,00 h 0 W/m 2,1 km/h (1 Bft) 93,81 %
24.01.2022 08:00 3,0 C 2,0 C 0,2 C 92 % 1034,8 hPa 0,0 l/m 0,00 h 0,00 h 11 W/m 0,0 km/h (0 Bft) 97,34 %
24.01.2022 09:00 2,9 C 2,7 C 0,7 C 93 % 1035,1 hPa 0,0 l/m 0,00 h 0,00 h 45 W/m 3,0 km/h (1 Bft) 95,93 %
24.01.2022 10:00 4,7 C 5,0 C 2,2 C 91 % 1035,0 hPa 0,0 l/m 1,00 h 0,00 h 228 W/m 14,7 km/h (3 Bft) 95,59 %
24.01.2022 11:00 6,2 C 10,6 C 2,6 C 83 % 1035,0 hPa 0,0 l/m 0,90 h 0,00 h 257 W/m 16,6 km/h (3 Bft) 97,58 %
24.01.2022 12:00 6,1 C 6,8 C 2,8 C 82 % 1034,6 hPa 0,0 l/m 0,10 h 0,00 h 134 W/m 16,8 km/h (3 Bft) 95,25 %
24.01.2022 13:00 6,2 C 9,1 C 3,2 C 83 % 1034,3 hPa 0,0 l/m 0,73 h 0,00 h 275 W/m 15,0 km/h (3 Bft) 99,15 %
24.01.2022 14:00 6,0 C 6,2 C 2,9 C 83 % 1034,1 hPa 0,0 l/m 0,03 h 0,00 h 132 W/m 11,1 km/h (2 Bft) 97,94 %
24.01.2022 15:00 5,7 C 5,4 C 2,4 C 84 % 1033,9 hPa 0,0 l/m 0,00 h 0,00 h 56 W/m 10,2 km/h (2 Bft) 95,68 %
24.01.2022 16:00 5,1 C 4,5 C 1,8 C 87 % 1033,9 hPa 0,0 l/m 0,00 h 0,00 h 15 W/m 9,2 km/h (2 Bft) 97,20 %
24.01.2022 17:00 4,7 C 4,0 C 1,3 C 88 % 1033,9 hPa 0,0 l/m 0,00 h 0,00 h 0 W/m 6,0 km/h (2 Bft) 97,44 %
24.01.2022 18:00 4,4 C 3,9 C 1,1 C 89 % 1034,2 hPa 0,0 l/m 0,00 h 0,00 h 0 W/m 5,0 km/h (1 Bft) 96,68 %
24.01.2022 19:00 4,3 C 3,9 C 1,1 C 90 % 1034,4 hPa 0,0 l/m 0,00 h 0,00 h 0 W/m 6,3 km/h (2 Bft) 98,50 %
24.01.2022 20:00 4,2 C 3,9 C 1,1 C 90 % 1034,7 hPa 0,0 l/m 0,00 h 0,00 h 0 W/m 6,3 km/h (2 Bft) 95,87 %
24.01.2022 21:00 4,3 C 3,9 C 1,1 C 90 % 1034,6 hPa 0,0 l/m 0,00 h 0,00 h 0 W/m 3,9 km/h (1 Bft) 97,58 %
24.01.2022 22:00 4,1 C 3,5 C 1,1 C 90 % 1034,5 hPa 0,0 l/m 0,00 h 0,00 h 0 W/m 7,0 km/h (2 Bft) 96,44 %
24.01.2022 23:00 3,9 C 3,3 C 0,8 C 90 % 1034,4 hPa 0,0 l/m 0,00 h 0,00 h 0 W/m 4,3 km/h (1 Bft) 99,57 %
25.01.2022 00:00 3,7 C 3,3 C 0,6 C 91 % 1034,6 hPa 0,0 l/m 0,00 h 0,00 h 0 W/m 4,1 km/h (1 Bft) 95,54 %
25.01.2022 01:00 3,6 C 3,3 C 0,6 C 91 % 1034,6 hPa 0,0 l/m 0,00 h 0,00 h 0 W/m 2,7 km/h (1 Bft) 98,15 %
25.01.2022 02:00 3,5 C 3,0 C 0,6 C 92 % 1034,6 hPa 0,0 l/m 0,00 h 0,00 h 0 W/m 3,4 km/h (1 Bft) 98,29 %
25.01.2022 03:00 3,4 C 2,8 C 0,6 C 92 % 1034,5 hPa 0,0 l/m 0,00 h 0,00 h 0 W/m 5,0 km/h (1 Bft) 94,81 %
25.01.2022 04:00 3,3 C 2,8 C 0,6 C 91 % 1034,2 hPa 0,0 l/m 0,00 h 0,00 h 0 W/m 1,8 km/h (1 Bft) 95,97 %
25.01.2022 05:00 3,3 C 2,8 C 0,6 C 91 % 1034,0 hPa 0,0 l/m 0,00 h 0,00 h 0 W/m 1,8 km/h (1 Bft) 97,79 %
25.01.2022 06:00 3,2 C 2,8 C 0,2 C 91 % 1033,9 hPa 0,0 l/m 0,00 h 0,00 h 0 W/m 3,3 km/h (1 Bft) 95,93 %
25.01.2022 07:00 3,0 C 2,8 C 0,0 C 90 % 1033,9 hPa 0,0 l/m 0,00 h 0,00 h 0 W/m 0,0 km/h (0 Bft) 97,22 %
25.01.2022 08:00 3,1 C 2,8 C 0,0 C 90 % 1034,0 hPa 0,0 l/m 0,00 h 0,00 h 6 W/m 0,0 km/h (0 Bft) 97,72 %
25.01.2022 09:00 3,0 C 2,8 C 0,0 C 90 % 1034,1 hPa 0,0 l/m 0,00 h 0,00 h 15 W/m 2,5 km/h (1 Bft) 97,36 %
25.01.2022 10:00 3,1 C 2,8 C 0,4 C 90 % 1034,5 hPa 0,0 l/m 0,00 h 0,00 h 29 W/m 3,3 km/h (1 Bft) 97,15 %
25.01.2022 11:00 3,3 C 3,2 C 0,6 C 90 % 1034,6 hPa 0,0 l/m 0,00 h 0,00 h 51 W/m 5,7 km/h (1 Bft) 97,80 %
25.01.2022 12:00 3,5 C 3,3 C 0,6 C 89 % 1034,5 hPa 0,0 l/m 0,00 h 0,00 h 68 W/m 6,4 km/h (2 Bft) 96,08 %
25.01.2022 13:00 3,6 C 3,3 C 0,6 C 89 % 1034,4 hPa 0,0 l/m 0,00 h 0,00 h 58 W/m 6,6 km/h (2 Bft) 94,09 %
25.01.2022 14:00 3,6 C 3,3 C 0,6 C 88 % 1033,9 hPa 0,0 l/m 0,00 h 0,00 h 63 W/m 5,9 km/h (2 Bft) 99,57 %
25.01.2022 15:00 3,5 C 3,3 C 0,6 C 87 % 1033,6 hPa 0,0 l/m 0,00 h 0,00 h 41 W/m 5,2 km/h (1 Bft) 93,81 %
25.01.2022 16:00 3,5 C 3,0 C 0,6 C 87 % 1033,4 hPa 0,0 l/m 0,00 h 0,00 h 15 W/m 4,9 km/h (1 Bft) 97,34 %
25.01.2022 17:00 3,3 C 2,8 C 0,1 C 87 % 1033,5 hPa 0,0 l/m 0,00 h 0,00 h 0 W/m 1,6 km/h (1 Bft) 98,50 %
25.01.2022 18:00 3,1 C 2,8 C 0,0 C 87 % 1033,5 hPa 0,0 l/m 0,00 h 0,00 h 0 W/m 1,3 km/h (1 Bft) 96,00 %
25.01.2022 19:00 3,1 C 2,8 C 0,0 C 87 % 1033,5 hPa 0,0 l/m 0,00 h 0,00 h 0 W/m 1,9 km/h (1 Bft) 98,09 %
25.01.2022 20:00 3,1 C 2,8 C 0,0 C 87 % 1033,5 hPa 0,0 l/m 0,00 h 0,00 h 0 W/m 3,5 km/h (1 Bft) 98,09 %
25.01.2022 21:00 3,2 C 2,8 C 0,0 C 86 % 1033,5 hPa 0,0 l/m 0,00 h 0,00 h 0 W/m 2,4 km/h (1 Bft) 96,61 %
25.01.2022 22:00 3,2 C 2,8 C 0,0 C 85 % 1033,5 hPa 0,0 l/m 0,00 h 0,00 h 0 W/m 2,2 km/h (1 Bft) 95,63 %
25.01.2022 23:00 3,1 C 2,4 C -0,4 C 86 % 1033,5 hPa 0,0 l/m 0,00 h 0,00 h 0 W/m 1,2 km/h (1 Bft) 96,10 %
26.01.2022 00:00 2,9 C 2,2 C -0,6 C 86 % 1033,5 hPa 0,0 l/m 0,00 h 0,00 h 0 W/m 2,8 km/h (1 Bft) 96,41 %
26.01.2022 01:00 2,8 C 2,2 C -0,6 C 87 % 1033,5 hPa 0,0 l/m 0,00 h 0,00 h 0 W/m 5,2 km/h (1 Bft) 96,31 %
26.01.2022 02:00 2,6 C 2,2 C -0,6 C 87 % 1033,4 hPa 0,0 l/m 0,00 h 0,00 h 0 W/m 7,6 km/h (2 Bft) 98,65 %
26.01.2022 03:00 2,6 C 2,2 C -0,6 C 87 % 1033,2 hPa 0,0 l/m 0,00 h 0,00 h 0 W/m 5,6 km/h (1 Bft) 96,55 %
26.01.2022 04:00 2,4 C 1,9 C -0,6 C 88 % 1032,5 hPa 0,0 l/m 0,00 h 0,00 h 0 W/m 4,1 km/h (1 Bft) 96,16 %
26.01.2022 05:00 2,3 C 1,7 C -0,8 C 88 % 1032,7 hPa 0,0 l/m 0,00 h 0,00 h 0 W/m 6,5 km/h (2 Bft) 97,89 %
26.01.2022 06:00 2,1 C 1,7 C -1,1 C 88 % 1033,0 hPa 0,0 l/m 0,00 h 0,00 h 0 W/m 10,7 km/h (2 Bft) 96,24 %
26.01.2022 07:00 2,0 C 1,7 C -1,1 C 88 % 1032,7 hPa 0,0 l/m 0,00 h 0,00 h 0 W/m 5,9 km/h (2 Bft) 97,72 %
26.01.2022 08:00 2,0 C 1,7 C -1,1 C 89 % 1032,6 hPa 0,0 l/m 0,00 h 0,00 h 5 W/m 4,8 km/h (1 Bft) 96,44 %
26.01.2022 09:00 2,2 C 1,7 C -1,0 C 90 % 1032,9 hPa 0,0 l/m 0,00 h 0,00 h 12 W/m 8,4 km/h (2 Bft) 97,94 %
26.01.2022 10:00 2,3 C 2,0 C -0,6 C 91 % 1033,3 hPa 0,0 l/m 0,00 h 0,00 h 21 W/m 11,3 km/h (2 Bft) 96,80 %
26.01.2022 11:00 2,3 C 2,2 C -0,6 C 92 % 1033,2 hPa 0,0 l/m 0,00 h 0,00 h 36 W/m 11,4 km/h (2 Bft) 98,22 %
26.01.2022 12:00 2,5 C 2,2 C -0,6 C 93 % 1033,3 hPa 0,0 l/m 0,00 h 0,00 h 39 W/m 10,7 km/h (2 Bft) 97,74 %
26.01.2022 13:00 2,6 C 2,2 C -0,2 C 94 % 1032,9 hPa 0,0 l/m 0,00 h 0,00 h 46 W/m 11,7 km/h (2 Bft) 97,43 %
26.01.2022 14:00 2,7 C 2,3 C 0,0 C 94 % 1032,5 hPa 0,0 l/m 0,00 h 0,00 h 37 W/m 11,4 km/h (2 Bft) 96,79 %
26.01.2022 15:00 2,7 C 2,4 C 0,0 C 94 % 1032,0 hPa 0,0 l/m 0,00 h 0,00 h 27 W/m 13,6 km/h (3 Bft) 96,95 %
26.01.2022 16:00 2,9 C 2,8 C 0,0 C 93 % 1031,9 hPa 0,0 l/m 0,00 h 0,00 h 12 W/m 9,7 km/h (2 Bft) 96,09 %
26.01.2022 17:00 2,9 C 2,3 C 0,0 C 93 % 1031,8 hPa 0,0 l/m 0,00 h 0,00 h 0 W/m 17,0 km/h (3 Bft) 96,30 %
26.01.2022 18:00 2,6 C 2,2 C -0,1 C 93 % 1031,6 hPa 0,0 l/m 0,00 h 0,00 h 0 W/m 18,5 km/h (3 Bft) 98,34 %
26.01.2022 19:00 2,6 C 2,2 C 0,0 C 93 % 1031,4 hPa 0,0 l/m 0,00 h 0,00 h 0 W/m 18,1 km/h (3 Bft) 95,39 %
26.01.2022 20:00 2,6 C 2,2 C 0,0 C 93 % 1031,1 hPa 0,0 l/m 0,00 h 0,00 h 0 W/m 16,2 km/h (3 Bft) 98,36 %
26.01.2022 21:00 2,6 C 2,2 C 0,0 C 92 % 1030,8 hPa 0,0 l/m 0,00 h 0,00 h 0 W/m 20,7 km/h (4 Bft) 96,16 %
26.01.2022 22:00 2,8 C 2,2 C 0,0 C 91 % 1030,2 hPa 0,0 l/m 0,00 h 0,00 h 0 W/m 20,0 km/h (4 Bft) 96,37 %
26.01.2022 23:00 3,0 C 2,8 C 0,0 C 91 % 1030,1 hPa 0,0 l/m 0,00 h 0,00 h 0 W/m 16,2 km/h (3 Bft) 96,96 %
27.01.2022 00:00 2,9 C 2,3 C 0,0 C 91 % 1030,0 hPa 0,0 l/m 0,00 h 0,00 h 0 W/m 16,2 km/h (3 Bft) 95,00 %
27.01.2022 01:00 2,9 C 2,4 C 0,0 C 89 % 1029,4 hPa 0,0 l/m 0,00 h 0,00 h 0 W/m 21,7 km/h (4 Bft) 95,73 %
27.01.2022 02:00 2,8 C 2,2 C 0,0 C 89 % 1028,6 hPa 0,0 l/m 0,00 h 0,00 h 0 W/m 22,8 km/h (4 Bft) 99,84 %
27.01.2022 03:00 3,0 C 2,5 C 0,0 C 90 % 1027,9 hPa 0,0 l/m 0,00 h 0,00 h 0 W/m 22,8 km/h (4 Bft) 96,44 %
27.01.2022 04:00 3,2 C 2,8 C 0,0 C 90 % 1027,3 hPa 0,0 l/m 0,00 h 0,00 h 0 W/m 22,1 km/h (4 Bft) 96,44 %
27.01.2022 05:00 3,3 C 2,8 C 0,2 C 90 % 1026,7 hPa 0,0 l/m 0,00 h 0,00 h 0 W/m 19,7 km/h (3 Bft) 97,94 %
27.01.2022 06:00 3,8 C 3,4 C 0,7 C 90 % 1025,8 hPa 0,0 l/m 0,00 h 0,00 h 0 W/m 20,7 km/h (4 Bft) 97,02 %
27.01.2022 07:00 4,5 C 3,9 C 1,1 C 90 % 1024,9 hPa 0,0 l/m 0,00 h 0,00 h 0 W/m 21,7 km/h (4 Bft) 97,22 %
27.01.2022 08:00 5,0 C 4,4 C 1,7 C 90 % 1024,4 hPa 0,0 l/m 0,00 h 0,00 h 7 W/m 21,0 km/h (4 Bft) 99,02 %
27.01.2022 09:00 4,8 C 4,1 C 1,2 C 94 % 1024,3 hPa 0,2 l/m 0,00 h 0,17 h 11 W/m 19,1 km/h (3 Bft) 95,73 %
27.01.2022 10:00 4,9 C 4,4 C 1,7 C 96 % 1024,3 hPa 0,2 l/m 0,00 h 0,40 h 34 W/m 18,7 km/h (3 Bft) 98,61 %
27.01.2022 11:00 5,3 C 4,8 C 2,3 C 98 % 1024,1 hPa 0,2 l/m 0,00 h 0,10 h 73 W/m 19,2 km/h (3 Bft) 97,09 %
27.01.2022 12:00 5,8 C 5,1 C 2,8 C 98 % 1023,7 hPa 0,0 l/m 0,00 h 0,10 h 44 W/m 21,9 km/h (4 Bft) 97,31 %
27.01.2022 13:00 6,1 C 5,5 C 3,2 C 98 % 1023,3 hPa 0,2 l/m 0,00 h 0,13 h 29 W/m 18,1 km/h (3 Bft) 97,72 %
27.01.2022 14:00 6,5 C 5,8 C 3,9 C 99 % 1023,0 hPa 0,2 l/m 0,00 h 0,00 h 25 W/m 16,2 km/h (3 Bft) 97,94 %
27.01.2022 15:00 7,1 C 6,5 C 4,7 C 99 % 1023,0 hPa 0,0 l/m 0,00 h 0,00 h 9 W/m 19,0 km/h (3 Bft) 96,72 %
27.01.2022 16:00 7,6 C 7,0 C 5,0 C 99 % 1023,3 hPa 0,0 l/m 0,00 h 0,10 h 6 W/m 17,6 km/h (3 Bft) 99,01 %
27.01.2022 17:00 7,6 C 6,7 C 5,0 C 98 % 1023,7 hPa 0,6 l/m 0,00 h 0,43 h 0 W/m 14,3 km/h (3 Bft) 97,22 %
27.01.2022 18:00 7,1 C 6,3 C 4,5 C 97 % 1024,3 hPa 0,0 l/m 0,00 h 0,03 h 0 W/m 15,1 km/h (3 Bft) 97,43 %
27.01.2022 19:00 6,8 C 6,1 C 4,1 C 96 % 1025,1 hPa 0,0 l/m 0,00 h 0,00 h 0 W/m 15,5 km/h (3 Bft) 95,19 %
27.01.2022 20:00 6,9 C 6,1 C 3,9 C 93 % 1025,8 hPa 0,0 l/m 0,00 h 0,03 h 0 W/m 19,8 km/h (4 Bft) 98,51 %
27.01.2022 21:00 6,3 C 5,5 C 3,3 C 92 % 1026,6 hPa 0,0 l/m 0,00 h 0,00 h 0 W/m 17,9 km/h (3 Bft) 97,86 %
27.01.2022 22:00 5,7 C 5,0 C 2,9 C 93 % 1027,5 hPa 0,0 l/m 0,00 h 0,00 h 0 W/m 14,3 km/h (3 Bft) 95,66 %
27.01.2022 23:00 5,7 C 5,0 C 3,0 C 93 % 1028,1 hPa 0,0 l/m 0,00 h 0,00 h 0 W/m 15,5 km/h (3 Bft) 99,71 %
28.01.2022 00:00 5,2 C 4,4 C 2,3 C 93 % 1028,4 hPa 0,0 l/m 0,00 h 0,00 h 0 W/m 13,6 km/h (3 Bft) 96,02 %
28.01.2022 01:00 4,7 C 3,9 C 2,1 C 94 % 1029,4 hPa 0,0 l/m 0,00 h 0,00 h 0 W/m 13,8 km/h (3 Bft) 98,01 %
28.01.2022 02:00 4,0 C 3,2 C 1,6 C 94 % 1030,3 hPa 0,0 l/m 0,00 h 0,00 h 0 W/m 10,4 km/h (2 Bft) 97,08 %
28.01.2022 03:00 3,7 C 3,0 C 1,1 C 94 % 1030,7 hPa 0,0 l/m 0,00 h 0,00 h 0 W/m 11,0 km/h (2 Bft) 98,93 %
28.01.2022 04:00 3,4 C 2,8 C 1,1 C 94 % 1031,3 hPa 0,0 l/m 0,00 h 0,00 h 0 W/m 10,6 km/h (2 Bft) 94,54 %
28.01.2022 05:00 3,3 C 2,6 C 1,0 C 94 % 1032,0 hPa 0,0 l/m 0,00 h 0,00 h 0 W/m 6,6 km/h (2 Bft) 97,80 %
28.01.2022 06:00 2,9 C 2,2 C 0,6 C 94 % 1032,7 hPa 0,0 l/m 0,00 h 0,00 h 0 W/m 5,6 km/h (1 Bft) 98,54 %
28.01.2022 07:00 2,8 C 2,1 C 0,5 C 95 % 1033,5 hPa 0,0 l/m 0,00 h 0,00 h 0 W/m 5,6 km/h (1 Bft) 95,37 %
28.01.2022 08:00 2,8 C 2,3 C 0,7 C 96 % 1034,2 hPa 0,0 l/m 0,00 h 0,00 h 18 W/m 5,8 km/h (2 Bft) 98,86 %
28.01.2022 09:00 3,2 C 3,0 C 1,2 C 96 % 1034,6 hPa 0,0 l/m 0,10 h 0,00 h 55 W/m 6,7 km/h (2 Bft) 96,69 %
28.01.2022 10:00 4,4 C 5,6 C 2,3 C 97 % 1035,1 hPa 0,0 l/m 0,68 h 0,00 h 183 W/m 8,9 km/h (2 Bft) 98,20 %
28.01.2022 11:00 5,9 C 8,3 C 3,9 C 91 % 1035,4 hPa 0,0 l/m 0,47 h 0,00 h 176 W/m 10,0 km/h (2 Bft) 99,79 %
28.01.2022 12:00 6,8 C 8,4 C 4,6 C 87 % 1035,4 hPa 0,0 l/m 0,30 h 0,00 h 178 W/m 10,4 km/h (2 Bft) 96,81 %
28.01.2022 13:00 7,8 C 12,0 C 4,6 C 81 % 1034,9 hPa 0,0 l/m 0,70 h 0,00 h 264 W/m 11,0 km/h (2 Bft) 99,00 %
28.01.2022 14:00 7,0 C 7,7 C 3,3 C 82 % 1034,4 hPa 0,0 l/m 0,20 h 0,00 h 113 W/m 5,9 km/h (2 Bft) 97,30 %
28.01.2022 15:00 7,5 C 8,5 C 3,7 C 82 % 1034,1 hPa 0,0 l/m 0,67 h 0,00 h 151 W/m 12,0 km/h (2 Bft) 96,29 %
28.01.2022 16:00 6,6 C 6,0 C 2,8 C 86 % 1034,4 hPa 0,0 l/m 0,00 h 0,00 h 42 W/m 8,2 km/h (2 Bft) 99,22 %
28.01.2022 17:00 5,6 C 4,8 C 2,0 C 90 % 1034,3 hPa 0,0 l/m 0,00 h 0,00 h 7 W/m 16,7 km/h (3 Bft) 95,72 %
28.01.2022 18:00 5,1 C 4,4 C 1,7 C 93 % 1034,1 hPa 0,0 l/m 0,00 h 0,00 h 0 W/m 17,1 km/h (3 Bft) 98,93 %
28.01.2022 19:00 4,9 C 4,4 C 1,7 C 93 % 1033,7 hPa 0,0 l/m 0,00 h 0,00 h 0 W/m 15,9 km/h (3 Bft) 97,01 %
28.01.2022 20:00 5,1 C 4,4 C 2,0 C 93 % 1033,2 hPa 0,0 l/m 0,00 h 0,00 h 0 W/m 17,1 km/h (3 Bft) 96,70 %
28.01.2022 21:00 5,3 C 4,7 C 2,2 C 93 % 1032,9 hPa 0,0 l/m 0,00 h 0,00 h 0 W/m 17,2 km/h (3 Bft) 97,65 %
28.01.2022 22:00 5,3 C 5,0 C 2,2 C 93 % 1032,4 hPa 0,0 l/m 0,00 h 0,00 h 0 W/m 23,6 km/h (4 Bft) 97,80 %
28.01.2022 23:00 5,3 C 5,0 C 2,2 C 93 % 1031,9 hPa 0,0 l/m 0,00 h 0,00 h 0 W/m 20,6 km/h (4 Bft) 96,68 %
29.01.2022 00:00 5,4 C 5,0 C 2,2 C 93 % 1031,0 hPa 0,0 l/m 0,00 h 0,00 h 0 W/m 20,2 km/h (4 Bft) 97,81 %
29.01.2022 01:00 5,6 C 5,0 C 2,4 C 93 % 1030,3 hPa 0,0 l/m 0,00 h 0,00 h 0 W/m 17,1 km/h (3 Bft) 97,79 %
29.01.2022 02:00 5,7 C 5,0 C 2,8 C 93 % 1029,4 hPa 0,0 l/m 0,00 h 0,00 h 0 W/m 18,2 km/h (3 Bft) 97,57 %
29.01.2022 03:00 5,8 C 5,0 C 2,8 C 94 % 1028,5 hPa 0,0 l/m 0,00 h 0,00 h 0 W/m 17,6 km/h (3 Bft) 96,30 %
29.01.2022 04:00 5,8 C 5,2 C 2,8 C 95 % 1027,7 hPa 0,0 l/m 0,00 h 0,00 h 0 W/m 19,6 km/h (3 Bft) 99,49 %
29.01.2022 05:00 6,0 C 5,3 C 2,8 C 96 % 1027,2 hPa 0,0 l/m 0,00 h 0,00 h 0 W/m 16,8 km/h (3 Bft) 95,75 %
29.01.2022 06:00 6,1 C 5,5 C 3,0 C 97 % 1026,8 hPa 0,0 l/m 0,00 h 0,00 h 0 W/m 16,0 km/h (3 Bft) 98,16 %
29.01.2022 07:00 6,4 C 5,8 C 3,6 C 98 % 1026,2 hPa 0,0 l/m 0,00 h 0,00 h 0 W/m 19,3 km/h (3 Bft) 98,31 %
29.01.2022 08:00 7,0 C 6,4 C 4,2 C 98 % 1025,8 hPa 0,0 l/m 0,00 h 0,00 h 5 W/m 20,3 km/h (4 Bft) 96,49 %
29.01.2022 09:00 7,4 C 6,9 C 4,8 C 97 % 1025,4 hPa 0,0 l/m 0,00 h 0,00 h 16 W/m 18,1 km/h (3 Bft) 97,70 %
29.01.2022 10:00 7,9 C 7,6 C 5,4 C 97 % 1024,9 hPa 0,0 l/m 0,00 h 0,00 h 42 W/m 19,0 km/h (3 Bft) 98,86 %
29.01.2022 11:00 8,5 C 7,9 C 5,9 C 96 % 1024,6 hPa 0,0 l/m 0,00 h 0,10 h 54 W/m 20,6 km/h (4 Bft) 95,09 %
29.01.2022 12:00 8,7 C 8,2 C 6,0 C 97 % 1023,8 hPa 0,0 l/m 0,00 h 0,07 h 83 W/m 22,3 km/h (4 Bft) 99,38 %
29.01.2022 13:00 9,3 C 9,1 C 7,0 C 95 % 1022,8 hPa 0,0 l/m 0,03 h 0,00 h 88 W/m 21,9 km/h (4 Bft) 96,65 %
29.01.2022 14:00 10,0 C 9,5 C 7,2 C 92 % 1022,1 hPa 0,0 l/m 0,00 h 0,00 h 74 W/m 23,6 km/h (4 Bft) 97,23 %
29.01.2022 15:00 10,1 C 9,4 C 7,2 C 91 % 1021,9 hPa 0,0 l/m 0,00 h 0,00 h 15 W/m 22,5 km/h (4 Bft) 98,29 %
29.01.2022 16:00 10,0 C 9,2 C 6,6 C 93 % 1021,9 hPa 0,0 l/m 0,00 h 0,30 h 7 W/m 21,9 km/h (4 Bft) 97,31 %
29.01.2022 17:00 9,7 C 9,0 C 6,3 C 96 % 1021,8 hPa 0,0 l/m 0,00 h 0,00 h 7 W/m 22,3 km/h (4 Bft) 96,38 %
29.01.2022 18:00 10,1 C 9,5 C 7,0 C 94 % 1022,2 hPa 0,0 l/m 0,00 h 0,00 h 0 W/m 18,1 km/h (3 Bft) 99,48 %
29.01.2022 19:00 10,3 C 9,4 C 7,1 C 93 % 1022,7 hPa 0,2 l/m 0,00 h 0,57 h 0 W/m 21,8 km/h (4 Bft) 95,58 %
29.01.2022 20:00 10,0 C 9,1 C 6,6 C 84 % 1024,1 hPa 0,0 l/m 0,00 h 0,00 h 0 W/m 33,8 km/h (5 Bft) 98,79 %
29.01.2022 21:00 9,0 C 8,1 C 5,3 C 83 % 1024,7 hPa 0,0 l/m 0,00 h 0,00 h 0 W/m 21,2 km/h (4 Bft) 98,73 %
29.01.2022 22:00 8,4 C 7,6 C 4,7 C 83 % 1025,3 hPa 0,0 l/m 0,00 h 0,00 h 0 W/m 27,9 km/h (4 Bft) 95,87 %
29.01.2022 23:00 7,7 C 6,8 C 3,9 C 84 % 1025,6 hPa 0,0 l/m 0,00 h 0,00 h 0 W/m 17,3 km/h (3 Bft) 96,82 %
30.01.2022 00:00 7,2 C 6,4 C 3,4 C 85 % 1026,2 hPa 0,0 l/m 0,00 h 0,00 h 0 W/m 19,5 km/h (3 Bft) 98,57 %
30.01.2022 01:00 6,4 C 5,7 C 2,8 C 86 % 1026,6 hPa 0,0 l/m 0,00 h 0,00 h 0 W/m 16,5 km/h (3 Bft) 95,45 %
30.01.2022 02:00 5,9 C 5,2 C 2,3 C 86 % 1027,0 hPa 0,0 l/m 0,00 h 0,00 h 0 W/m 13,8 km/h (3 Bft) 99,07 %
30.01.2022 03:00 5,2 C 4,4 C 1,7 C 88 % 1027,1 hPa 0,0 l/m 0,00 h 0,00 h 0 W/m 12,6 km/h (3 Bft) 97,30 %
30.01.2022 04:00 5,0 C 4,4 C 1,7 C 88 % 1027,6 hPa 0,0 l/m 0,00 h 0,00 h 0 W/m 12,4 km/h (3 Bft) 96,41 %
30.01.2022 05:00 4,8 C 4,1 C 1,3 C 89 % 1027,9 hPa 0,0 l/m 0,00 h 0,00 h 0 W/m 14,5 km/h (3 Bft) 98,34 %
30.01.2022 06:00 4,4 C 3,6 C 1,0 C 90 % 1028,3 hPa 0,0 l/m 0,00 h 0,00 h 0 W/m 13,0 km/h (3 Bft) 97,46 %
30.01.2022 07:00 4,3 C 3,8 C 1,0 C 90 % 1028,9 hPa 0,0 l/m 0,00 h 0,00 h 0 W/m 12,6 km/h (3 Bft) 95,91 %
30.01.2022 08:00 4,3 C 3,8 C 1,1 C 89 % 1029,5 hPa 0,0 l/m 0,00 h 0,00 h 11 W/m 12,0 km/h (2 Bft) 96,15 %
30.01.2022 09:00 4,6 C 4,3 C 1,5 C 88 % 1030,0 hPa 0,0 l/m 0,10 h 0,00 h 57 W/m 13,5 km/h (3 Bft) 99,79 %
30.01.2022 10:00 5,5 C 5,7 C 2,4 C 85 % 1030,3 hPa 0,0 l/m 0,10 h 0,00 h 117 W/m 15,4 km/h (3 Bft) 94,39 %
30.01.2022 11:00 6,6 C 9,4 C 3,1 C 81 % 1030,3 hPa 0,0 l/m 0,80 h 0,00 h 241 W/m 19,0 km/h (3 Bft) 97,37 %
30.01.2022 12:00 7,2 C 8,2 C 3,4 C 76 % 1030,2 hPa 0,0 l/m 0,20 h 0,00 h 172 W/m 23,1 km/h (4 Bft) 98,07 %
30.01.2022 13:00 7,5 C 10,2 C 3,6 C 71 % 1029,8 hPa 0,0 l/m 0,57 h 0,00 h 237 W/m 22,0 km/h (4 Bft) 97,58 %
30.01.2022 14:00 7,8 C 9,0 C 3,6 C 69 % 1029,3 hPa 0,0 l/m 0,60 h 0,00 h 229 W/m 22,6 km/h (4 Bft) 98,22 %
30.01.2022 15:00 7,5 C 7,3 C 3,3 C 71 % 1028,7 hPa 0,0 l/m 0,13 h 0,00 h 89 W/m 15,9 km/h (3 Bft) 97,00 %
30.01.2022 16:00 7,3 C 6,8 C 3,0 C 70 % 1028,3 hPa 0,0 l/m 0,37 h 0,00 h 55 W/m 12,2 km/h (3 Bft) 98,57 %
30.01.2022 17:00 6,1 C 5,0 C 1,6 C 75 % 1027,7 hPa 0,0 l/m 0,00 h 0,00 h 8 W/m 4,9 km/h (1 Bft) 95,49 %
30.01.2022 18:00 4,9 C 3,5 C 0,1 C 78 % 1026,9 hPa 0,0 l/m 0,00 h 0,00 h 0 W/m 2,6 km/h (1 Bft) 98,09 %
30.01.2022 19:00 4,5 C 3,6 C 0,5 C 82 % 1026,4 hPa 0,0 l/m 0,00 h 0,00 h 0 W/m 2,8 km/h (1 Bft) 94,81 %
30.01.2022 20:00 4,3 C 3,7 C 0,5 C 83 % 1025,5 hPa 0,0 l/m 0,00 h 0,00 h 0 W/m 4,1 km/h (1 Bft) 98,65 %
30.01.2022 21:00 4,7 C 4,1 C 0,9 C 81 % 1024,3 hPa 0,0 l/m 0,00 h 0,00 h 0 W/m 10,3 km/h (2 Bft) 97,94 %
30.01.2022 22:00 5,0 C 4,4 C 1,1 C 82 % 1022,6 hPa 0,0 l/m 0,00 h 0,00 h 0 W/m 14,3 km/h (3 Bft) 95,66 %
30.01.2022 23:00 4,8 C 4,2 C 1,1 C 82 % 1021,1 hPa 0,0 l/m 0,00 h 0,00 h 0 W/m 15,1 km/h (3 Bft) 99,36 %
Min-Datum _ 24.01.22 24.01.22 24.01.22 30.01.22 30.01.22 - - - - 24.01.22 27.01.22
_ Min-Zeit 04:50 04:24 03:44 14:32 23:46 - - - - 00:20 00:02
Minimum _ 0,1 C -1,1 C -2,2 C 67 % 1020,5 hPa - - - - 0,0 km/h (0 Bft) 5,26 %
Max-Datum _ 29.01.22 28.01.22 29.01.22 27.01.22 24.01.22 27.01.22 24.01.22 27.01.22 28.01.22 29.01.22 24.01.22
_ Max-Zeit 18:38 13:18 14:32 13:38 00:00 17:26 10:00 09:16 13:22 20:04 00:04
Maximum _ 10,3 C 16,7 C 7,8 C 99 % 1035,6 hPa 0,6 l/m 0,03 h 0,03 h 468 W/m 57,9 km/h
N (7 Bft)
100,00 %
Durchschnitt _ 4,8 C 4,4 C 1,7 C 90 % 1030,3 hPa #1,8 l/m #8:47 h #2:32 h 72 W/m 12,2 km/h (2 Bft) 97,21 %
© 2022 W. Hausmann